CDT,Max TemperatureF,Mean TemperatureF,Min TemperatureF,Max Dew PointF,MeanDew PointF,Min DewpointF,Max Humidity, Mean Humidity, Min Humidity, Max Sea Level PressureIn, Mean Sea Level PressureIn, Min Sea Level PressureIn, Max VisibilityMiles, Mean VisibilityMiles, Min VisibilityMiles, Max Wind SpeedMPH, Mean Wind SpeedMPH, Max Gust SpeedMPH,PrecipitationIn, CloudCover, Events, WindDirDegrees
2013-6-1,68,55,44,58,50,39,100,85,70,29.93,29.72,29.59,10,8,2,9,4,18,0.04,7,Rain,77
2013-6-2,64,53,41,41,38,35,89,69,34,30.09,30.01,29.92,10,10,6,9,5,,0.00,5,Rain,354
2013-6-3,69,52,36,42,35,28,93,56,29,30.12,30.08,30.04,10,10,6,10,2,,0.00,1,,46
2013-6-4,62,56,51,52,44,31,97,69,41,30.19,30.15,30.09,10,9,4,12,4,,0.23,7,Rain,111
2013-6-5,55,52,51,52,49,48,96,91,86,30.14,30.06,30.01,10,6,1,12,6,20,1.63,8,Rain-Thunderstorm,85
2013-6-6,55,52,50,50,48,46,94,89,74,30.07,30.04,30.01,10,7,2,10,5,,0.03,8,Rain,55
2013-6-7,70,54,42,50,44,38,96,70,36,30.08,30.02,29.96,10,9,1,7,1,,0.00,6,,82
2013-6-8,73,62,51,52,49,46,92,67,41,30.00,29.96,29.94,10,10,10,13,3,16,0.01,4,,153
2013-6-9,63,59,55,58,52,47,90,82,72,30.00,29.93,29.86,10,9,6,13,8,20,0.26,5,Rain,105
2013-6-10,77,63,51,60,56,52,100,81,50,29.86,29.84,29.81,10,6,0,8,2,,0.00,6,Fog,199
2013-6-11,81,66,51,61,54,49,100,84,36,29.91,29.87,29.83,10,6,0,6,0,,0.00,4,Fog,235
2013-6-12,78,64,50,56,51,48,93,61,37,29.92,29.87,29.79,10,10,9,8,2,,0.00,1,,100
2013-6-13,73,60,48,50,47,45,89,64,37,30.14,30.08,29.94,10,10,10,13,4,22,0.00,0,,41
2013-6-14,77,60,46,53,49,44,96,62,36,30.17,30.07,29.95,10,10,7,12,4,21,0.00,1,,147
2013-6-15,71,62,55,64,60,53,100,87,73,29.97,29.90,29.84,10,7,0,9,2,18,0.22,7,Fog-Rain-Thunderstorm,179
2013-6-16,82,63,44,56,50,45,100,72,27,29.90,29.86,29.82,10,6,0,9,2,25,0.13,2,Fog-Rain,335
2013-6-17,71,58,42,56,51,40,100,81,59,30.09,29.95,29.86,10,8,1,9,3,18,0.00,2,,39
2013-6-18,73,56,41,44,41,38,93,59,29,30.17,30.12,30.07,10,10,10,12,3,,0.00,0,,74
2013-6-19,80,60,41,56,50,39,93,65,39,30.12,30.07,30.00,10,10,10,9,2,,0.00,1,,189
2013-6-20,80,68,57,66,63,54,100,87,56,30.06,30.03,29.99,10,7,0,15,5,30,1.26,6,Fog-Rain-Thunderstorm,102
2013-6-21,72,66,60,64,62,59,100,90,73,30.13,29.93,29.77,10,7,1,14,7,26,1.44,7,Rain-Thunderstorm,74
2013-6-22,73,66,59,66,62,57,100,88,73,30.05,29.98,29.89,10,9,5,16,6,25,0.08,5,Rain,89
2013-6-23,81,72,61,66,64,60,97,78,54,29.89,29.81,29.73,10,9,6,12,5,30,0.00,3,,192
2013-6-24,82,68,53,69,59,52,100,85,47,29.93,29.88,29.82,10,6,1,12,1,,0.00,2,,201
2013-6-25,84,70,55,67,61,55,100,86,53,29.87,29.84,29.76,10,6,0,8,1,,0.00,1,Fog,167
2013-6-26,82,72,62,73,67,62,100,90,71,29.80,29.74,29.69,10,7,0,13,2,20,0.02,4,Fog-Rain-Thunderstorm,173
2013-6-27,84,71,60,66,60,54,100,79,38,29.81,29.77,29.72,10,6,0,13,2,24,0.01,4,Fog-Rain-Thunderstorm,258
2013-6-28,72,65,60,64,61,57,94,89,78,29.80,29.74,29.70,10,8,1,8,3,23,0.25,7,Rain,9
2013-6-29,71,59,46,58,54,44,97,77,44,30.02,29.88,29.78,10,10,10,12,3,22,0.00,4,,24
2013-6-30,82,61,41,55,47,39,97,68,29,30.14,30.08,30.03,10,8,2,9,1,,0.00,0,,53